createdAt,value
2018-11-04T00:00:30.388Z,38.27
2018-11-04T00:02:59.230Z,36.80
2018-11-04T00:05:28.088Z,38.20
2018-11-04T00:07:56.918Z,43.20
2018-11-04T00:10:25.740Z,39.40
2018-11-04T00:12:54.616Z,41.53
2018-11-04T00:15:23.434Z,39.77
2018-11-04T00:17:52.263Z,38.13
2018-11-04T00:20:21.162Z,41.33
2018-11-04T00:22:49.975Z,38.63
2018-11-04T00:25:18.917Z,39.50
2018-11-04T00:27:47.730Z,40.50
2018-11-04T00:30:16.683Z,31.70
2018-11-04T00:32:45.488Z,39.37
2018-11-04T00:35:14.422Z,36.80
2018-11-04T00:37:43.203Z,33.77
2018-11-04T00:40:12.060Z,37.30
2018-11-04T00:42:40.842Z,41.80
2018-11-04T00:45:10.141Z,36.63
2018-11-04T00:47:39.765Z,44.10
2018-11-04T00:50:14.444Z,44.40
2018-11-04T00:52:43.694Z,36.63
2018-11-04T00:55:12.994Z,34.53
2018-11-04T00:57:42.116Z,35.13
2018-11-04T01:00:13.893Z,35.27
2018-11-04T01:02:43.395Z,31.50
2018-11-04T01:05:12.231Z,35.73
2018-11-04T01:07:41.154Z,34.57
2018-11-04T01:10:10.929Z,33.30
2018-11-04T01:12:40.056Z,35.50
2018-11-04T01:15:10.503Z,34.83
2018-11-04T01:17:39.926Z,38.80
2018-11-04T01:20:10.621Z,43.33
2018-11-04T01:22:39.402Z,45.30
2018-11-04T01:25:08.333Z,40.00
2018-11-04T01:27:37.139Z,33.47
2018-11-04T01:30:07.837Z,38.57
2018-11-04T01:32:36.966Z,39.47
2018-11-04T01:35:06.301Z,43.23
2018-11-04T01:37:35.153Z,41.67
2018-11-04T01:40:04.152Z,39.77
2018-11-04T01:42:32.977Z,38.27
2018-11-04T01:45:01.882Z,39.13
2018-11-04T01:47:30.748Z,37.10
2018-11-04T01:49:59.568Z,36.10
2018-11-04T01:52:28.371Z,34.93
2018-11-04T01:54:57.274Z,36.10
2018-11-04T01:57:26.224Z,39.90
2018-11-04T01:59:55.118Z,43.60
2018-11-04T02:02:23.990Z,35.63
2018-11-04T02:04:52.866Z,42.47
2018-11-04T02:07:21.729Z,47.87
2018-11-04T02:09:50.648Z,34.03
2018-11-04T02:12:19.514Z,36.57
2018-11-04T02:14:48.395Z,36.37
2018-11-04T02:17:17.254Z,39.10
2018-11-04T02:19:46.173Z,38.53
2018-11-04T02:22:14.998Z,39.20
2018-11-04T02:24:43.883Z,38.87
2018-11-04T02:27:12.755Z,39.30
2018-11-04T02:29:41.621Z,38.23
2018-11-04T02:32:10.620Z,36.10
2018-11-04T02:34:39.463Z,38.23
2018-11-04T02:37:09.239Z,35.17
2018-11-04T02:39:38.101Z,39.07
2018-11-04T02:42:06.924Z,36.03
2018-11-04T02:44:35.805Z,43.87
2018-11-04T02:47:04.728Z,39.13
2018-11-04T02:49:33.509Z,40.57
2018-11-04T02:52:02.441Z,41.20
2018-11-04T02:54:31.206Z,41.23
2018-11-04T02:57:00.083Z,43.80
2018-11-04T02:59:28.954Z,41.50
2018-11-04T03:01:57.979Z,38.23
2018-11-04T03:04:26.745Z,43.07
2018-11-04T03:06:55.662Z,43.87
2018-11-04T03:09:24.506Z,47.80
2018-11-04T03:11:53.372Z,40.00
2018-11-04T03:14:22.205Z,35.03
2018-11-04T03:16:51.106Z,38.40
2018-11-04T03:19:19.983Z,42.50
2018-11-04T03:21:48.762Z,48.70
2018-11-04T03:24:23.485Z,40.67
2018-11-04T03:26:52.330Z,46.60
2018-11-04T03:29:21.211Z,39.30
2018-11-04T03:31:49.972Z,43.03
2018-11-04T03:34:18.979Z,46.50
2018-11-04T03:36:47.833Z,43.23
2018-11-04T03:39:16.639Z,42.50
2018-11-04T03:41:45.518Z,39.87
2018-11-04T03:44:14.418Z,38.13
2018-11-04T03:46:43.215Z,44.33
2018-11-04T03:49:12.054Z,43.00
2018-11-04T03:51:40.932Z,45.63
2018-11-04T03:54:09.789Z,45.23
2018-11-04T03:56:38.585Z,48.37
2018-11-04T03:59:07.873Z,42.17
2018-11-04T04:01:36.699Z,42.57
2018-11-04T04:04:10.785Z,47.27
2018-11-04T04:06:39.721Z,40.63
2018-11-04T04:09:09.538Z,34.40
2018-11-04T04:11:38.580Z,38.97
2018-11-04T04:14:08.015Z,42.77
2018-11-04T04:16:36.891Z,47.90
2018-11-04T04:19:05.834Z,41.53
2018-11-04T04:21:34.629Z,47.00
2018-11-04T04:24:03.466Z,43.10
2018-11-04T04:26:32.310Z,46.57
2018-11-04T04:29:01.181Z,46.20
2018-11-04T04:31:30.029Z,47.53
2018-11-04T04:33:58.875Z,49.93
2018-11-04T04:36:27.664Z,49.53
2018-11-04T04:38:56.540Z,55.23
2018-11-04T04:41:25.430Z,49.27
2018-11-04T04:43:54.319Z,51.00
2018-11-04T04:46:23.232Z,56.30
2018-11-04T04:48:52.137Z,56.23
2018-11-04T04:51:21.007Z,53.73
2018-11-04T04:53:49.852Z,58.77
2018-11-04T04:56:18.778Z,50.90
2018-11-04T04:58:47.822Z,50.17
2018-11-04T05:01:16.683Z,57.17
2018-11-04T05:03:45.483Z,51.80
2018-11-04T05:06:14.435Z,45.13
2018-11-04T05:08:43.242Z,47.90
2018-11-04T05:11:12.111Z,40.80
2018-11-04T05:13:40.903Z,47.77
2018-11-04T05:16:09.739Z,38.03
2018-11-04T05:18:38.590Z,46.67
2018-11-04T05:21:07.424Z,53.53
2018-11-04T05:23:36.311Z,52.87
2018-11-04T05:26:05.602Z,54.40
2018-11-04T05:28:34.461Z,53.63
2018-11-04T05:31:03.312Z,53.43
2018-11-04T05:33:32.117Z,52.00
2018-11-04T05:36:01.028Z,62.70
2018-11-04T05:38:29.971Z,61.90
2018-11-04T05:40:58.654Z,47.77
2018-11-04T05:43:27.511Z,61.60
2018-11-04T05:45:56.387Z,48.63
2018-11-04T05:48:25.230Z,45.83
2018-11-04T05:50:54.079Z,44.30
2018-11-04T05:53:22.828Z,50.17
2018-11-04T05:55:51.753Z,49.60
2018-11-04T05:58:20.672Z,57.57
2018-11-04T06:00:49.491Z,49.50
2018-11-04T06:03:18.323Z,52.20
2018-11-04T06:05:47.209Z,45.73
2018-11-04T06:08:16.025Z,50.47
2018-11-04T06:10:44.905Z,49.97
2018-11-04T06:13:14.674Z,42.00
2018-11-04T06:15:43.533Z,44.87
2018-11-04T06:18:12.334Z,46.90
2018-11-04T06:20:41.134Z,56.00
2018-11-04T06:23:09.997Z,49.53
2018-11-04T06:25:38.869Z,51.23
2018-11-04T06:28:07.678Z,53.97
2018-11-04T06:30:36.537Z,49.53
2018-11-04T06:33:05.438Z,52.07
2018-11-04T06:35:34.333Z,66.23
2018-11-04T06:38:03.200Z,61.10
2018-11-04T06:40:32.105Z,58.73
2018-11-04T06:43:01.571Z,52.33
2018-11-04T06:45:30.322Z,57.57
2018-11-04T06:47:59.144Z,51.17
2018-11-04T06:50:27.972Z,60.10
2018-11-04T06:52:56.781Z,62.93
2018-11-04T06:55:25.932Z,70.70
2018-11-04T06:57:54.865Z,57.80
2018-11-04T07:00:23.699Z,62.57
2018-11-04T07:02:52.593Z,53.97
2018-11-04T07:05:21.482Z,53.60
2018-11-04T07:07:50.394Z,53.57
2018-11-04T07:10:19.247Z,62.70
2018-11-04T07:12:48.138Z,48.83
2018-11-04T07:15:16.980Z,64.10
2018-11-04T07:17:45.859Z,51.50
2018-11-04T07:20:14.724Z,38.87
2018-11-04T07:22:43.816Z,48.90
2018-11-04T07:25:13.637Z,42.17
2018-11-04T07:27:44.729Z,53.13
2018-11-04T07:30:15.224Z,42.50
2018-11-04T07:32:45.296Z,43.27
2018-11-04T07:35:14.182Z,47.17
2018-11-04T07:37:43.859Z,47.33
2018-11-04T07:40:12.702Z,52.60
2018-11-04T07:42:41.690Z,39.00
2018-11-04T07:45:10.807Z,45.87
2018-11-04T07:47:40.460Z,39.50
2018-11-04T07:50:13.089Z,37.90
2018-11-04T07:52:45.288Z,37.17
2018-11-04T07:55:14.483Z,38.73
2018-11-04T07:57:44.763Z,42.20
2018-11-04T08:00:15.648Z,53.97
2018-11-04T08:02:45.141Z,47.97
2018-11-04T08:05:14.076Z,43.00
2018-11-04T08:07:42.983Z,42.33
2018-11-04T08:10:13.167Z,46.13
2018-11-04T08:12:43.425Z,35.20
2018-11-04T08:15:13.430Z,41.27
2018-11-04T08:17:43.403Z,38.13
2018-11-04T08:20:12.577Z,43.13
2018-11-04T08:22:41.894Z,37.20
2018-11-04T08:25:11.148Z,38.37
2018-11-04T08:27:40.100Z,34.30
2018-11-04T08:30:09.441Z,37.37
2018-11-04T08:32:40.587Z,37.20
2018-11-04T08:35:09.543Z,36.07
2018-11-04T08:37:38.858Z,41.53
2018-11-04T08:40:08.606Z,40.70
2018-11-04T08:42:37.875Z,40.00
2018-11-04T08:45:08.952Z,47.63
2018-11-04T08:47:37.796Z,35.67
2018-11-04T08:50:08.569Z,39.13
2018-11-04T08:52:37.750Z,38.90
2018-11-04T08:55:07.915Z,42.87
2018-11-04T08:57:36.891Z,41.70
2018-11-04T09:00:08.131Z,33.53
2018-11-04T09:02:38.079Z,40.83
2018-11-04T09:05:09.392Z,36.80
2018-11-04T09:07:38.529Z,40.63
2018-11-04T09:10:12.995Z,34.57
2018-11-04T09:12:42.152Z,38.70
2018-11-04T09:15:12.519Z,34.80
2018-11-04T09:17:42.936Z,35.17
2018-11-04T09:20:13.199Z,33.63
2018-11-04T09:22:43.347Z,39.70
2018-11-04T09:25:15.441Z,39.57
2018-11-04T09:27:44.959Z,41.50
2018-11-04T09:30:16.377Z,37.10
2018-11-04T09:32:45.944Z,38.13
2018-11-04T09:35:14.890Z,35.67
2018-11-04T09:37:43.805Z,40.33
2018-11-04T09:40:13.915Z,35.33
2018-11-04T09:42:42.871Z,33.53
2018-11-04T09:45:11.916Z,35.13
2018-11-04T09:47:40.854Z,34.50
2018-11-04T09:50:11.026Z,41.23
2018-11-04T09:52:40.042Z,34.13
2018-11-04T09:55:12.063Z,37.30
2018-11-04T09:57:41.569Z,27.73
2018-11-04T10:00:12.831Z,21.53
2018-11-04T10:02:41.782Z,32.57
2018-11-04T10:05:11.227Z,28.23
2018-11-04T10:07:40.472Z,32.13
2018-11-04T10:10:11.697Z,28.93
2018-11-04T10:12:41.549Z,31.20
2018-11-04T10:15:10.813Z,33.53
2018-11-04T10:17:40.343Z,26.37
2018-11-04T10:20:10.740Z,28.57
2018-11-04T10:22:39.702Z,22.30
2018-11-04T10:25:09.784Z,27.23
2018-11-04T10:27:39.090Z,25.50
2018-11-04T10:30:11.644Z,25.40
2018-11-04T10:32:42.124Z,32.73
2018-11-04T10:35:12.609Z,24.60
2018-11-04T10:37:42.231Z,28.17
2018-11-04T10:40:11.947Z,27.30
2018-11-04T10:42:41.140Z,26.87
2018-11-04T10:45:11.454Z,24.73
2018-11-04T10:47:40.197Z,22.93
2018-11-04T10:50:10.951Z,22.30
2018-11-04T10:52:39.846Z,28.23
2018-11-04T10:55:10.009Z,26.00
2018-11-04T10:57:39.071Z,25.00
2018-11-04T11:00:15.710Z,27.73
2018-11-04T11:02:45.222Z,21.90
2018-11-04T11:05:14.314Z,21.57
2018-11-04T11:07:43.338Z,26.03
2018-11-04T11:10:12.521Z,29.13
2018-11-04T11:12:41.309Z,26.27
2018-11-04T11:15:11.107Z,26.13
2018-11-04T11:17:40.437Z,29.10
2018-11-04T11:20:10.407Z,30.37
2018-11-04T11:22:39.418Z,27.47
2018-11-04T11:25:08.850Z,30.23
2018-11-04T11:27:37.676Z,25.90
2018-11-04T11:30:06.688Z,28.07
2018-11-04T11:32:35.419Z,26.03
2018-11-04T11:35:04.605Z,23.20
2018-11-04T11:37:33.593Z,25.30
2018-11-04T11:40:02.476Z,28.57
2018-11-04T11:42:31.406Z,29.20
2018-11-04T11:45:00.414Z,28.50
2018-11-04T11:47:29.238Z,25.30
2018-11-04T11:49:58.062Z,31.13
2018-11-04T11:52:27.003Z,24.83
2018-11-04T11:54:56.299Z,28.10
2018-11-04T11:57:25.200Z,30.13
2018-11-04T11:59:54.182Z,27.87
2018-11-04T12:02:23.133Z,29.20
2018-11-04T12:04:52.125Z,26.10
2018-11-04T12:07:20.986Z,29.70
2018-11-04T12:09:50.095Z,25.83
2018-11-04T12:12:18.959Z,30.43
2018-11-04T12:14:47.795Z,28.63
2018-11-04T12:17:16.607Z,30.43
2018-11-04T12:19:45.655Z,27.00
2018-11-04T12:22:14.501Z,32.13
2018-11-04T12:24:43.375Z,25.73
2018-11-04T12:27:12.286Z,28.07
2018-11-04T12:29:41.140Z,25.57
2018-11-04T12:32:10.220Z,28.00
2018-11-04T12:34:40.248Z,28.10
2018-11-04T12:37:09.202Z,25.23
2018-11-04T12:39:38.044Z,25.57
2018-11-04T12:42:06.959Z,26.20
2018-11-04T12:44:35.987Z,27.40
2018-11-04T12:47:07.152Z,23.83
2018-11-04T12:49:36.004Z,23.03
2018-11-04T12:52:05.183Z,25.20
2018-11-04T12:54:34.258Z,27.27
2018-11-04T12:57:03.171Z,25.63
2018-11-04T12:59:32.782Z,26.50
2018-11-04T13:02:01.643Z,20.50
2018-11-04T13:04:30.655Z,29.67
2018-11-04T13:06:59.749Z,27.73
2018-11-04T13:09:28.784Z,23.13
2018-11-04T13:11:57.741Z,24.23
2018-11-04T13:14:26.780Z,25.50
2018-11-04T13:16:55.764Z,25.40
2018-11-04T13:19:24.999Z,25.23
2018-11-04T13:21:54.216Z,26.00
2018-11-04T13:24:23.103Z,25.63
2018-11-04T13:26:52.861Z,24.97
2018-11-04T13:29:22.091Z,28.80
2018-11-04T13:31:50.887Z,25.87
2018-11-04T13:34:20.283Z,26.67
2018-11-04T13:36:49.189Z,27.30
2018-11-04T13:39:18.077Z,27.03
2018-11-04T13:41:47.035Z,24.30
2018-11-04T13:44:15.941Z,26.03
2018-11-04T13:46:45.047Z,30.03
2018-11-04T13:49:14.208Z,27.60
2018-11-04T13:51:43.068Z,22.73
2018-11-04T13:54:12.259Z,24.90
2018-11-04T13:56:41.465Z,22.10
2018-11-04T13:59:11.751Z,26.93
2018-11-04T14:01:41.745Z,24.00
2018-11-04T14:04:11.770Z,29.90
2018-11-04T14:06:41.486Z,26.17
2018-11-04T14:09:10.959Z,22.80
2018-11-04T14:11:41.047Z,25.97
2018-11-04T14:14:10.456Z,29.60
2018-11-04T14:16:39.829Z,31.50
2018-11-04T14:19:08.707Z,26.27
2018-11-04T14:21:38.126Z,24.37
2018-11-04T14:24:06.942Z,23.97
2018-11-04T14:26:39.632Z,26.30
2018-11-04T14:29:08.841Z,21.03
2018-11-04T14:31:37.656Z,21.40
2018-11-04T14:34:06.741Z,26.17
2018-11-04T14:36:35.585Z,26.63
2018-11-04T14:39:05.740Z,26.73
2018-11-04T14:41:34.864Z,24.80
2018-11-04T14:44:03.677Z,28.47
2018-11-04T14:46:32.694Z,25.57
2018-11-04T14:49:01.673Z,24.63
2018-11-04T14:51:30.549Z,28.37
2018-11-04T14:53:59.700Z,29.37
2018-11-04T14:56:29.539Z,29.53
2018-11-04T14:58:58.850Z,28.87
2018-11-04T15:01:28.084Z,28.47
2018-11-04T15:03:58.223Z,27.33
2018-11-04T15:06:29.070Z,27.30
2018-11-04T15:08:58.979Z,30.50
2018-11-04T15:11:28.103Z,29.47
2018-11-04T15:13:57.211Z,25.30
2018-11-04T15:16:26.437Z,24.57
2018-11-04T15:18:55.384Z,31.97
2018-11-04T15:21:24.802Z,25.27
2018-11-04T15:23:55.434Z,27.10
2018-11-04T15:26:25.089Z,28.33
2018-11-04T15:28:55.854Z,31.13
2018-11-04T15:31:24.997Z,27.40
2018-11-04T15:33:55.112Z,24.90
2018-11-04T15:36:25.155Z,25.80
2018-11-04T15:38:54.084Z,25.13
2018-11-04T15:41:22.987Z,26.70
2018-11-04T15:43:52.608Z,29.57
2018-11-04T15:46:26.177Z,27.77
2018-11-04T15:48:57.222Z,34.20
2018-11-04T15:51:27.213Z,26.80
2018-11-04T15:53:56.979Z,32.67
2018-11-04T15:56:28.027Z,29.93
2018-11-04T15:58:57.887Z,37.20
2018-11-04T16:01:27.843Z,32.53
2018-11-04T16:03:57.515Z,31.60
2018-11-04T16:06:27.017Z,30.77
2018-11-04T16:08:56.544Z,33.43
2018-11-04T16:11:27.274Z,29.73
2018-11-04T16:13:57.433Z,32.10
2018-11-04T16:16:26.319Z,33.83
2018-11-04T16:18:55.900Z,36.20
2018-11-04T16:21:28.720Z,31.67
2018-11-04T16:23:58.306Z,30.90
2018-11-04T16:26:28.469Z,37.73
2018-11-04T16:28:59.310Z,39.00
2018-11-04T16:31:28.949Z,32.77
2018-11-04T16:33:58.473Z,32.50
2018-11-04T16:36:28.238Z,32.57
2018-11-04T16:39:00.378Z,35.73
2018-11-04T16:41:30.022Z,35.90
2018-11-04T16:43:59.656Z,35.33
2018-11-04T16:46:29.103Z,35.40
2018-11-04T16:48:58.636Z,33.33
2018-11-04T16:51:28.605Z,35.10
2018-11-04T16:53:58.984Z,43.50
2018-11-04T16:56:29.229Z,30.50
2018-11-04T16:58:59.803Z,36.23
2018-11-04T17:01:30.304Z,35.07
2018-11-04T17:03:59.984Z,33.30
2018-11-04T17:06:29.861Z,36.50
2018-11-04T17:08:59.881Z,32.77
2018-11-04T17:11:29.809Z,34.23
2018-11-04T17:13:58.624Z,40.90
2018-11-04T17:16:27.805Z,40.40
2018-11-04T17:18:56.620Z,37.10
2018-11-04T17:21:26.819Z,47.10
2018-11-04T17:23:56.239Z,37.80
2018-11-04T17:26:28.477Z,38.30
2018-11-04T17:28:57.980Z,37.90
2018-11-04T17:31:29.537Z,35.40
2018-11-04T17:34:03.055Z,36.87
2018-11-04T17:36:32.048Z,32.90
2018-11-04T17:39:00.921Z,37.60
2018-11-04T17:41:29.733Z,38.80
2018-11-04T17:43:58.615Z,35.80
2018-11-04T17:46:27.581Z,32.50
2018-11-04T17:48:56.552Z,33.87
2018-11-04T17:51:25.392Z,35.30
2018-11-04T17:53:54.333Z,34.97
2018-11-04T17:56:23.242Z,32.80
2018-11-04T17:58:52.072Z,33.80
2018-11-04T18:01:21.015Z,38.83
2018-11-04T18:03:49.826Z,32.97
2018-11-04T18:06:18.734Z,35.43
2018-11-04T18:08:47.710Z,39.13
2018-11-04T18:11:16.725Z,39.53
2018-11-04T18:13:45.752Z,38.13
2018-11-04T18:16:14.730Z,33.40
2018-11-04T18:18:44.170Z,37.00
2018-11-04T18:21:13.472Z,34.17
2018-11-04T18:23:42.799Z,33.90
2018-11-04T18:26:11.720Z,39.03
2018-11-04T18:28:40.665Z,38.00
2018-11-04T18:31:09.546Z,37.13
2018-11-04T18:33:38.444Z,36.47
2018-11-04T18:36:07.382Z,36.13
2018-11-04T18:38:36.185Z,35.10
2018-11-04T18:41:05.131Z,38.50
2018-11-04T18:43:34.161Z,41.10
2018-11-04T18:46:03.037Z,31.60
2018-11-04T18:48:32.090Z,34.50
2018-11-04T18:51:00.891Z,36.47
2018-11-04T18:53:29.853Z,33.33
2018-11-04T18:55:59.041Z,36.03
2018-11-04T18:58:28.081Z,37.10
2018-11-04T19:00:56.913Z,40.07
2018-11-04T19:03:25.756Z,38.27
2018-11-04T19:05:54.694Z,39.87
2018-11-04T19:08:23.590Z,43.23
2018-11-04T19:10:52.649Z,39.57
2018-11-04T19:13:21.553Z,39.90
2018-11-04T19:15:50.825Z,36.43
2018-11-04T19:18:20.325Z,41.40
2018-11-04T19:20:49.331Z,42.53
2018-11-04T19:23:19.064Z,41.17
2018-11-04T19:25:48.079Z,42.37
2018-11-04T19:28:16.960Z,38.93
2018-11-04T19:30:49.963Z,38.90
2018-11-04T19:33:18.808Z,40.87
2018-11-04T19:35:47.869Z,43.40
2018-11-04T19:38:16.954Z,49.73
2018-11-04T19:40:46.631Z,38.87
2018-11-04T19:43:16.782Z,37.67
2018-11-04T19:45:46.263Z,38.93
2018-11-04T19:48:15.936Z,40.67
2018-11-04T19:50:44.936Z,40.50
2018-11-04T19:53:15.401Z,44.73
2018-11-04T19:55:45.133Z,40.50
2018-11-04T19:58:14.420Z,43.00
2018-11-04T20:00:43.990Z,33.13
2018-11-04T20:03:13.281Z,39.10
2018-11-04T20:05:42.334Z,45.90
2018-11-04T20:08:11.485Z,39.90
2018-11-04T20:10:40.460Z,41.10
2018-11-04T20:13:14.859Z,36.90
2018-11-04T20:15:43.941Z,40.27
2018-11-04T20:18:18.271Z,40.13
2018-11-04T20:20:49.607Z,38.20
2018-11-04T20:23:18.921Z,36.00
2018-11-04T20:25:53.647Z,37.77
2018-11-04T20:28:22.925Z,37.50
2018-11-04T20:30:52.147Z,42.13
2018-11-04T20:33:21.112Z,40.03
2018-11-04T20:35:50.529Z,43.67
2018-11-04T20:38:23.732Z,37.63
2018-11-04T20:40:58.324Z,36.37
2018-11-04T20:43:27.744Z,44.23
2018-11-04T20:45:57.292Z,41.03
2018-11-04T20:48:31.804Z,41.50
2018-11-04T20:51:03.651Z,39.87
2018-11-04T20:53:39.344Z,48.40
2018-11-04T20:56:13.675Z,51.13
2018-11-04T20:58:43.142Z,55.03
2018-11-04T21:01:12.496Z,53.97
2018-11-04T21:03:42.257Z,46.80
2018-11-04T21:06:11.703Z,54.93
2018-11-04T21:08:41.094Z,52.80
2018-11-04T21:11:10.017Z,53.37
2018-11-04T21:13:39.023Z,55.67
2018-11-04T21:16:08.073Z,57.67
2018-11-04T21:18:37.169Z,56.70
2018-11-04T21:21:06.324Z,61.03
2018-11-04T21:23:35.986Z,49.47
2018-11-04T21:26:04.917Z,55.77
2018-11-04T21:28:34.142Z,53.43
2018-11-04T21:31:03.208Z,54.13
2018-11-04T21:33:32.332Z,63.87
2018-11-04T21:36:01.353Z,64.93
2018-11-04T21:38:30.587Z,62.50
2018-11-04T21:40:59.851Z,64.17
2018-11-04T21:43:29.149Z,56.33
2018-11-04T21:45:58.161Z,45.30
2018-11-04T21:48:27.229Z,48.40
2018-11-04T21:50:56.270Z,53.15
2018-11-04T21:53:25.385Z,45.70
2018-11-04T21:55:54.631Z,51.42
2018-11-04T21:58:23.665Z,51.33
2018-11-04T22:00:52.667Z,43.20
2018-11-04T22:03:21.666Z,48.17
2018-11-04T22:05:50.532Z,42.27
2018-11-04T22:08:19.684Z,50.03
2018-11-04T22:10:49.115Z,42.50
2018-11-04T22:13:18.047Z,46.70
2018-11-04T22:15:47.652Z,42.27
2018-11-04T22:18:16.622Z,48.60
2018-11-04T22:20:45.633Z,44.60
2018-11-04T22:23:14.915Z,43.93
2018-11-04T22:25:43.907Z,39.83
2018-11-04T22:28:13.244Z,39.67
2018-11-04T22:30:42.438Z,35.07
2018-11-04T22:33:11.370Z,35.37
2018-11-04T22:35:40.453Z,44.77
2018-11-04T22:38:09.790Z,40.07
2018-11-04T22:40:38.886Z,42.13
2018-11-04T22:43:08.009Z,37.80
2018-11-04T22:45:37.010Z,37.87
2018-11-04T22:48:06.559Z,42.67
2018-11-04T22:50:35.392Z,42.73
2018-11-04T22:53:04.574Z,40.43
2018-11-04T22:55:33.391Z,40.70
2018-11-04T22:58:06.096Z,48.17
2018-11-04T23:00:40.347Z,41.43
2018-11-04T23:03:09.450Z,50.90
2018-11-04T23:05:38.294Z,40.87
2018-11-04T23:08:07.670Z,48.30
2018-11-04T23:10:36.723Z,40.70
2018-11-04T23:13:05.733Z,37.60
2018-11-04T23:15:34.582Z,42.00
2018-11-04T23:18:03.527Z,41.03
2018-11-04T23:20:32.367Z,44.63
2018-11-04T23:23:01.260Z,43.10
2018-11-04T23:25:30.188Z,50.17
2018-11-04T23:27:58.984Z,53.03
2018-11-04T23:30:27.837Z,55.23
2018-11-04T23:32:56.669Z,53.17
2018-11-04T23:35:25.572Z,51.50
2018-11-04T23:37:54.422Z,55.60
2018-11-04T23:40:23.443Z,56.10
2018-11-04T23:42:52.253Z,51.97
2018-11-04T23:45:21.167Z,60.73
2018-11-04T23:47:50.043Z,82.13
2018-11-04T23:50:18.880Z,75.53
2018-11-04T23:52:47.782Z,76.47
2018-11-04T23:55:16.704Z,79.13
2018-11-04T23:57:45.626Z,86.80
